sensor_id;sensor_type;location;lat;lon;timestamp;pressure;altitude;pressure_sealevel;temperature;humidity
16016;BME280;8112;53.592;10.184;2022-07-18T00:04:06;102177.06;;;16.41;100.00
16016;BME280;8112;53.592;10.184;2022-07-18T00:09:14;102164.50;;;17.01;100.00
16016;BME280;8112;53.592;10.184;2022-07-18T00:14:16;102160.19;;;17.13;100.00
16016;BME280;8112;53.592;10.184;2022-07-18T00:19:19;102160.91;;;17.30;100.00
16016;BME280;8112;53.592;10.184;2022-07-18T00:24:23;102155.50;;;17.31;100.00
16016;BME280;8112;53.592;10.184;2022-07-18T00:29:25;102149.47;;;17.15;100.00
16016;BME280;8112;53.592;10.184;2022-07-18T00:34:27;102159.00;;;16.75;100.00
16016;BME280;8112;53.592;10.184;2022-07-18T00:39:30;102151.50;;;16.53;100.00
16016;BME280;8112;53.592;10.184;2022-07-18T00:44:32;102149.03;;;16.50;100.00
16016;BME280;8112;53.592;10.184;2022-07-18T00:49:34;102146.47;;;16.63;100.00
16016;BME280;8112;53.592;10.184;2022-07-18T00:54:38;102144.25;;;16.84;100.00
16016;BME280;8112;53.592;10.184;2022-07-18T00:59:39;102148.03;;;16.94;100.00
16016;BME280;8112;53.592;10.184;2022-07-18T01:04:59;102154.06;;;16.40;100.00
16016;BME280;8112;53.592;10.184;2022-07-18T01:10:03;102145.28;;;16.09;100.00
16016;BME280;8112;53.592;10.184;2022-07-18T01:15:06;102143.00;;;16.17;100.00
16016;BME280;8112;53.592;10.184;2022-07-18T01:20:10;102143.13;;;16.16;100.00
16016;BME280;8112;53.592;10.184;2022-07-18T01:25:13;102148.41;;;16.01;100.00
16016;BME280;8112;53.592;10.184;2022-07-18T01:30:17;102154.59;;;15.86;100.00
16016;BME280;8112;53.592;10.184;2022-07-18T01:35:21;102157.09;;;15.89;100.00
16016;BME280;8112;53.592;10.184;2022-07-18T01:40:25;102152.00;;;16.00;100.00
16016;BME280;8112;53.592;10.184;2022-07-18T01:45:26;102150.47;;;16.41;100.00
16016;BME280;8112;53.592;10.184;2022-07-18T01:50:28;102137.59;;;16.62;100.00
16016;BME280;8112;53.592;10.184;2022-07-18T01:55:32;102131.53;;;16.60;100.00
16016;BME280;8112;53.592;10.184;2022-07-18T02:00:33;102133.16;;;16.19;100.00
16016;BME280;8112;53.592;10.184;2022-07-18T02:05:35;102140.59;;;15.98;100.00
16016;BME280;8112;53.592;10.184;2022-07-18T02:10:38;102131.97;;;15.78;100.00
16016;BME280;8112;53.592;10.184;2022-07-18T02:15:40;102123.81;;;15.81;100.00
16016;BME280;8112;53.592;10.184;2022-07-18T02:20:42;102128.09;;;16.15;100.00
16016;BME280;8112;53.592;10.184;2022-07-18T02:25:45;102126.78;;;16.22;100.00
16016;BME280;8112;53.592;10.184;2022-07-18T02:30:47;102124.09;;;16.07;100.00
16016;BME280;8112;53.592;10.184;2022-07-18T02:35:49;102118.94;;;15.90;100.00
16016;BME280;8112;53.592;10.184;2022-07-18T02:40:52;102114.72;;;15.86;100.00
16016;BME280;8112;53.592;10.184;2022-07-18T02:45:54;102105.59;;;16.35;100.00
16016;BME280;8112;53.592;10.184;2022-07-18T02:50:56;102110.25;;;16.60;100.00
16016;BME280;8112;53.592;10.184;2022-07-18T02:55:59;102117.84;;;16.66;100.00
16016;BME280;8112;53.592;10.184;2022-07-18T03:01:00;102114.25;;;16.38;100.00
16016;BME280;8112;53.592;10.184;2022-07-18T03:06:02;102125.16;;;16.19;100.00
16016;BME280;8112;53.592;10.184;2022-07-18T03:11:05;102129.78;;;16.01;100.00
16016;BME280;8112;53.592;10.184;2022-07-18T03:16:07;102120.97;;;16.15;100.00
16016;BME280;8112;53.592;10.184;2022-07-18T03:21:09;102117.47;;;16.44;100.00
16016;BME280;8112;53.592;10.184;2022-07-18T03:26:13;102120.88;;;16.17;100.00
16016;BME280;8112;53.592;10.184;2022-07-18T03:31:15;102117.72;;;15.95;100.00
16016;BME280;8112;53.592;10.184;2022-07-18T03:36:17;102115.75;;;16.14;100.00
16016;BME280;8112;53.592;10.184;2022-07-18T03:41:20;102108.16;;;16.51;100.00
16016;BME280;8112;53.592;10.184;2022-07-18T03:46:22;102108.16;;;16.65;100.00
16016;BME280;8112;53.592;10.184;2022-07-18T03:51:23;102088.94;;;16.75;100.00
16016;BME280;8112;53.592;10.184;2022-07-18T03:56:27;102084.00;;;16.69;100.00
16016;BME280;8112;53.592;10.184;2022-07-18T04:01:29;102091.72;;;16.44;100.00
16016;BME280;8112;53.592;10.184;2022-07-18T04:06:31;102097.53;;;16.51;100.00
16016;BME280;8112;53.592;10.184;2022-07-18T04:11:34;102095.00;;;16.77;100.00
16016;BME280;8112;53.592;10.184;2022-07-18T04:16:35;102106.19;;;16.96;100.00
16016;BME280;8112;53.592;10.184;2022-07-18T04:21:37;102111.03;;;17.04;100.00
16016;BME280;8112;53.592;10.184;2022-07-18T04:26:40;102094.72;;;17.23;100.00
16016;BME280;8112;53.592;10.184;2022-07-18T04:31:42;102082.69;;;17.31;100.00
16016;BME280;8112;53.592;10.184;2022-07-18T04:36:44;102087.03;;;17.19;100.00
16016;BME280;8112;53.592;10.184;2022-07-18T04:41:47;102088.44;;;17.24;100.00
16016;BME280;8112;53.592;10.184;2022-07-18T04:46:49;102081.00;;;17.30;100.00
16016;BME280;8112;53.592;10.184;2022-07-18T04:51:51;102074.50;;;17.34;100.00
16016;BME280;8112;53.592;10.184;2022-07-18T04:56:54;102079.84;;;17.47;100.00
16016;BME280;8112;53.592;10.184;2022-07-18T05:01:55;102075.94;;;17.52;100.00
16016;BME280;8112;53.592;10.184;2022-07-18T05:06:57;102079.69;;;17.76;100.00
16016;BME280;8112;53.592;10.184;2022-07-18T05:12:00;102077.47;;;17.83;100.00
16016;BME280;8112;53.592;10.184;2022-07-18T05:17:02;102068.63;;;17.95;100.00
16016;BME280;8112;53.592;10.184;2022-07-18T05:22:04;102063.75;;;18.15;100.00
16016;BME280;8112;53.592;10.184;2022-07-18T05:27:07;102070.25;;;18.11;100.00
16016;BME280;8112;53.592;10.184;2022-07-18T05:32:09;102069.91;;;18.28;100.00
16016;BME280;8112;53.592;10.184;2022-07-18T05:37:12;102072.78;;;18.25;100.00
16016;BME280;8112;53.592;10.184;2022-07-18T05:42:15;102088.28;;;18.07;100.00
16016;BME280;8112;53.592;10.184;2022-07-18T05:47:17;102093.78;;;17.91;100.00
16016;BME280;8112;53.592;10.184;2022-07-18T05:52:18;102094.22;;;17.85;100.00
16016;BME280;8112;53.592;10.184;2022-07-18T05:57:21;102087.66;;;18.03;100.00
16016;BME280;8112;53.592;10.184;2022-07-18T06:02:23;102094.59;;;18.19;100.00
16016;BME280;8112;53.592;10.184;2022-07-18T06:07:25;102098.44;;;18.15;100.00
16016;BME280;8112;53.592;10.184;2022-07-18T06:12:29;102103.44;;;18.19;100.00
16016;BME280;8112;53.592;10.184;2022-07-18T06:17:31;102091.19;;;18.67;100.00
16016;BME280;8112;53.592;10.184;2022-07-18T06:22:33;102081.66;;;19.37;100.00
16016;BME280;8112;53.592;10.184;2022-07-18T06:27:37;102076.97;;;20.00;100.00
16016;BME280;8112;53.592;10.184;2022-07-18T06:32:39;102081.22;;;20.25;100.00
16016;BME280;8112;53.592;10.184;2022-07-18T06:37:41;102077.34;;;20.18;100.00
16016;BME280;8112;53.592;10.184;2022-07-18T06:42:45;102068.56;;;20.04;100.00
16016;BME280;8112;53.592;10.184;2022-07-18T06:47:48;102071.00;;;20.30;100.00
16016;BME280;8112;53.592;10.184;2022-07-18T06:52:50;102066.16;;;20.24;100.00
16016;BME280;8112;53.592;10.184;2022-07-18T06:57:53;102066.88;;;20.26;100.00
16016;BME280;8112;53.592;10.184;2022-07-18T07:02:55;102062.03;;;20.31;100.00
16016;BME280;8112;53.592;10.184;2022-07-18T07:07:57;102059.06;;;20.46;100.00
16016;BME280;8112;53.592;10.184;2022-07-18T07:13:00;102059.53;;;20.62;100.00
16016;BME280;8112;53.592;10.184;2022-07-18T07:18:02;102054.56;;;21.56;100.00
16016;BME280;8112;53.592;10.184;2022-07-18T07:23:05;102047.75;;;22.25;100.00
16016;BME280;8112;53.592;10.184;2022-07-18T07:28:10;102042.06;;;22.49;100.00
16016;BME280;8112;53.592;10.184;2022-07-18T07:33:12;102055.56;;;22.79;100.00
16016;BME280;8112;53.592;10.184;2022-07-18T07:38:13;102053.03;;;23.46;100.00
16016;BME280;8112;53.592;10.184;2022-07-18T07:43:20;102045.31;;;23.81;100.00
16016;BME280;8112;53.592;10.184;2022-07-18T07:48:24;102041.56;;;23.54;100.00
16016;BME280;8112;53.592;10.184;2022-07-18T07:53:25;102045.06;;;23.65;100.00
16016;BME280;8112;53.592;10.184;2022-07-18T07:58:29;102047.59;;;23.76;100.00
16016;BME280;8112;53.592;10.184;2022-07-18T08:03:30;102036.63;;;24.07;100.00
16016;BME280;8112;53.592;10.184;2022-07-18T08:08:32;102024.63;;;24.47;100.00
16016;BME280;8112;53.592;10.184;2022-07-18T08:13:35;102017.16;;;24.59;100.00
16016;BME280;8112;53.592;10.184;2022-07-18T08:18:37;102023.00;;;23.99;100.00
16016;BME280;8112;53.592;10.184;2022-07-18T08:23:39;102016.84;;;24.44;100.00
16016;BME280;8112;53.592;10.184;2022-07-18T08:28:42;102017.34;;;24.94;100.00
16016;BME280;8112;53.592;10.184;2022-07-18T08:33:44;102016.38;;;25.22;96.77
16016;BME280;8112;53.592;10.184;2022-07-18T08:38:45;102000.69;;;25.61;94.29
16016;BME280;8112;53.592;10.184;2022-07-18T08:43:49;101998.59;;;25.29;93.57
16016;BME280;8112;53.592;10.184;2022-07-18T08:48:51;101994.34;;;25.26;92.04
16016;BME280;8112;53.592;10.184;2022-07-18T08:53:55;101979.88;;;25.54;89.37
16016;BME280;8112;53.592;10.184;2022-07-18T08:59:01;101979.53;;;25.83;92.05
16016;BME280;8112;53.592;10.184;2022-07-18T09:04:03;101971.16;;;26.63;90.01
16016;BME280;8112;53.592;10.184;2022-07-18T09:09:18;101973.91;;;26.96;82.62
16016;BME280;8112;53.592;10.184;2022-07-18T09:14:30;101969.84;;;26.15;83.12
16016;BME280;8112;53.592;10.184;2022-07-18T09:19:31;101965.44;;;25.37;86.00
16016;BME280;8112;53.592;10.184;2022-07-18T09:24:49;101959.28;;;26.30;89.77
16016;BME280;8112;53.592;10.184;2022-07-18T09:35:25;101971.50;;;26.59;80.51
16016;BME280;8112;53.592;10.184;2022-07-18T09:40:30;101987.47;;;25.85;85.11
16016;BME280;8112;53.592;10.184;2022-07-18T09:45:34;101986.84;;;25.99;88.09
16016;BME280;8112;53.592;10.184;2022-07-18T09:50:39;101985.59;;;25.85;84.63
16016;BME280;8112;53.592;10.184;2022-07-18T09:55:45;101987.69;;;26.43;86.36
16016;BME280;8112;53.592;10.184;2022-07-18T10:00:54;101985.59;;;27.78;83.56
16016;BME280;8112;53.592;10.184;2022-07-18T10:05:59;102003.25;;;27.49;69.71
16016;BME280;8112;53.592;10.184;2022-07-18T10:11:03;102000.75;;;26.64;73.39
16016;BME280;8112;53.592;10.184;2022-07-18T10:16:05;102000.63;;;26.91;77.90
16016;BME280;8112;53.592;10.184;2022-07-18T10:21:10;101995.88;;;26.93;80.85
16016;BME280;8112;53.592;10.184;2022-07-18T10:26:14;101985.53;;;26.63;73.96
16016;BME280;8112;53.592;10.184;2022-07-18T10:31:16;101983.13;;;26.60;73.97
16016;BME280;8112;53.592;10.184;2022-07-18T10:36:21;101968.78;;;27.34;73.96
16016;BME280;8112;53.592;10.184;2022-07-18T10:41:23;101946.06;;;28.00;69.19
16016;BME280;8112;53.592;10.184;2022-07-18T10:47:03;101948.91;;;28.85;64.99
16016;BME280;8112;53.592;10.184;2022-07-18T10:58:15;101957.88;;;28.85;63.76
16016;BME280;8112;53.592;10.184;2022-07-18T11:03:25;101955.88;;;28.56;63.03
16016;BME280;8112;53.592;10.184;2022-07-18T11:08:31;101941.81;;;27.97;63.91
16016;BME280;8112;53.592;10.184;2022-07-18T11:13:34;101912.03;;;27.97;66.03
16016;BME280;8112;53.592;10.184;2022-07-18T11:19:18;101919.81;;;28.00;66.25
16016;BME280;8112;53.592;10.184;2022-07-18T11:24:22;101918.38;;;27.33;65.54
16016;BME280;8112;53.592;10.184;2022-07-18T11:29:24;101912.47;;;27.29;67.28
16016;BME280;8112;53.592;10.184;2022-07-18T11:34:25;101924.47;;;27.35;70.38
16016;BME280;8112;53.592;10.184;2022-07-18T11:39:30;101914.78;;;27.57;72.04
16016;BME280;8112;53.592;10.184;2022-07-18T11:44:34;101899.13;;;27.99;65.19
16016;BME280;8112;53.592;10.184;2022-07-18T11:49:37;101903.56;;;28.00;67.48
16016;BME280;8112;53.592;10.184;2022-07-18T11:54:40;101895.47;;;27.92;66.40
16016;BME280;8112;53.592;10.184;2022-07-18T11:59:42;101881.19;;;27.98;68.06
16016;BME280;8112;53.592;10.184;2022-07-18T12:04:45;101873.06;;;27.98;69.20
16016;BME280;8112;53.592;10.184;2022-07-18T12:09:49;101873.41;;;27.72;64.58
16016;BME280;8112;53.592;10.184;2022-07-18T12:14:55;101861.38;;;27.74;66.23
16016;BME280;8112;53.592;10.184;2022-07-18T12:20:11;101863.22;;;28.06;67.43
16016;BME280;8112;53.592;10.184;2022-07-18T12:25:15;101868.41;;;28.15;66.29
16016;BME280;8112;53.592;10.184;2022-07-18T12:30:18;101856.63;;;28.31;63.00
16016;BME280;8112;53.592;10.184;2022-07-18T12:35:22;101853.41;;;28.51;62.51
16016;BME280;8112;53.592;10.184;2022-07-18T12:40:26;101847.28;;;28.72;59.32
16016;BME280;8112;53.592;10.184;2022-07-18T12:45:28;101858.00;;;28.66;60.17
16016;BME280;8112;53.592;10.184;2022-07-18T12:50:30;101850.78;;;28.81;59.53
16016;BME280;8112;53.592;10.184;2022-07-18T12:55:34;101851.69;;;28.88;58.70
16016;BME280;8112;53.592;10.184;2022-07-18T13:00:38;101837.63;;;28.70;56.91
16016;BME280;8112;53.592;10.184;2022-07-18T13:05:41;101840.44;;;28.77;58.32
16016;BME280;8112;53.592;10.184;2022-07-18T13:10:45;101829.25;;;28.41;58.58
16016;BME280;8112;53.592;10.184;2022-07-18T13:15:47;101822.69;;;28.74;58.56
16016;BME280;8112;53.592;10.184;2022-07-18T13:20:48;101809.25;;;28.96;58.03
16016;BME280;8112;53.592;10.184;2022-07-18T13:25:51;101799.97;;;29.05;56.06
16016;BME280;8112;53.592;10.184;2022-07-18T13:30:53;101790.63;;;29.08;54.67
16016;BME280;8112;53.592;10.184;2022-07-18T13:35:56;101786.25;;;28.92;55.58
16016;BME280;8112;53.592;10.184;2022-07-18T13:40:59;101784.47;;;28.84;55.23
16016;BME280;8112;53.592;10.184;2022-07-18T13:46:01;101788.59;;;28.95;56.32
16016;BME280;8112;53.592;10.184;2022-07-18T13:51:03;101773.13;;;29.10;56.45
16016;BME280;8112;53.592;10.184;2022-07-18T13:56:07;101774.81;;;29.11;55.00
16016;BME280;8112;53.592;10.184;2022-07-18T14:01:08;101761.91;;;29.13;54.59
16016;BME280;8112;53.592;10.184;2022-07-18T14:06:10;101769.34;;;29.41;52.95
16016;BME280;8112;53.592;10.184;2022-07-18T14:11:13;101765.50;;;29.72;52.98
16016;BME280;8112;53.592;10.184;2022-07-18T14:16:15;101765.13;;;30.26;51.53
16016;BME280;8112;53.592;10.184;2022-07-18T14:21:17;101763.88;;;30.57;50.86
16016;BME280;8112;53.592;10.184;2022-07-18T14:26:20;101763.06;;;30.28;47.87
16016;BME280;8112;53.592;10.184;2022-07-18T14:31:22;101766.56;;;30.00;46.69
16016;BME280;8112;53.592;10.184;2022-07-18T14:36:24;101766.31;;;29.51;46.77
16016;BME280;8112;53.592;10.184;2022-07-18T14:41:27;101765.03;;;29.69;49.92
16016;BME280;8112;53.592;10.184;2022-07-18T14:46:28;101751.94;;;30.01;49.32
16016;BME280;8112;53.592;10.184;2022-07-18T14:51:30;101743.84;;;30.29;47.60
16016;BME280;8112;53.592;10.184;2022-07-18T14:56:33;101751.25;;;29.49;47.46
16016;BME280;8112;53.592;10.184;2022-07-18T15:01:35;101735.22;;;29.54;47.00
16016;BME280;8112;53.592;10.184;2022-07-18T15:06:36;101732.03;;;29.72;45.04
16016;BME280;8112;53.592;10.184;2022-07-18T15:11:40;101736.78;;;30.07;46.81
16016;BME280;8112;53.592;10.184;2022-07-18T15:16:41;101736.88;;;30.55;46.67
16016;BME280;8112;53.592;10.184;2022-07-18T15:21:43;101728.50;;;30.85;43.15
16016;BME280;8112;53.592;10.184;2022-07-18T15:26:46;101718.00;;;31.24;43.74
16016;BME280;8112;53.592;10.184;2022-07-18T15:31:48;101726.59;;;31.35;43.82
16016;BME280;8112;53.592;10.184;2022-07-18T15:36:50;101725.59;;;32.37;42.35
16016;BME280;8112;53.592;10.184;2022-07-18T15:41:53;101730.03;;;32.11;40.64
16016;BME280;8112;53.592;10.184;2022-07-18T15:46:55;101716.56;;;31.42;42.94
16016;BME280;8112;53.592;10.184;2022-07-18T15:51:57;101712.97;;;31.21;43.09
16016;BME280;8112;53.592;10.184;2022-07-18T15:57:00;101713.66;;;30.88;41.33
16016;BME280;8112;53.592;10.184;2022-07-18T16:02:02;101690.53;;;30.64;43.59
16016;BME280;8112;53.592;10.184;2022-07-18T16:07:05;101690.19;;;30.87;43.92
16016;BME280;8112;53.592;10.184;2022-07-18T16:12:09;101683.53;;;30.96;42.94
16016;BME280;8112;53.592;10.184;2022-07-18T16:17:13;101690.44;;;30.57;42.85
16016;BME280;8112;53.592;10.184;2022-07-18T16:22:14;101682.34;;;30.28;43.56
16016;BME280;8112;53.592;10.184;2022-07-18T16:27:18;101688.28;;;30.39;44.35
16016;BME280;8112;53.592;10.184;2022-07-18T16:32:19;101683.09;;;30.15;44.89
16016;BME280;8112;53.592;10.184;2022-07-18T16:37:21;101680.97;;;29.61;45.96
16016;BME280;8112;53.592;10.184;2022-07-18T16:42:26;101673.38;;;29.12;45.41
16016;BME280;8112;53.592;10.184;2022-07-18T16:47:28;101675.28;;;28.97;45.88
16016;BME280;8112;53.592;10.184;2022-07-18T16:52:30;101675.19;;;28.90;47.13
16016;BME280;8112;53.592;10.184;2022-07-18T16:57:33;101678.50;;;29.07;48.22
16016;BME280;8112;53.592;10.184;2022-07-18T17:02:36;101668.06;;;29.91;45.14
16016;BME280;8112;53.592;10.184;2022-07-18T17:07:38;101661.75;;;29.62;44.01
16016;BME280;8112;53.592;10.184;2022-07-18T17:12:43;101663.56;;;29.11;46.12
16016;BME280;8112;53.592;10.184;2022-07-18T17:17:45;101651.16;;;28.87;45.86
16016;BME280;8112;53.592;10.184;2022-07-18T17:22:48;101650.78;;;28.60;47.39
16016;BME280;8112;53.592;10.184;2022-07-18T17:27:52;101645.13;;;28.25;48.62
16016;BME280;8112;53.592;10.184;2022-07-18T17:32:54;101652.19;;;28.11;50.21
16016;BME280;8112;53.592;10.184;2022-07-18T17:37:56;101660.03;;;28.06;49.46
16016;BME280;8112;53.592;10.184;2022-07-18T17:43:02;101653.97;;;28.03;49.45
16016;BME280;8112;53.592;10.184;2022-07-18T17:48:05;101659.25;;;27.82;49.54
16016;BME280;8112;53.592;10.184;2022-07-18T17:53:07;101654.50;;;27.60;51.30
16016;BME280;8112;53.592;10.184;2022-07-18T17:58:10;101652.03;;;27.51;51.74
16016;BME280;8112;53.592;10.184;2022-07-18T18:03:12;101648.53;;;27.42;53.24
16016;BME280;8112;53.592;10.184;2022-07-18T18:08:14;101649.06;;;27.37;53.38
16016;BME280;8112;53.592;10.184;2022-07-18T18:13:17;101649.19;;;27.21;54.42
16016;BME280;8112;53.592;10.184;2022-07-18T18:18:19;101647.75;;;27.10;57.16
16016;BME280;8112;53.592;10.184;2022-07-18T18:23:21;101645.44;;;26.98;60.44
16016;BME280;8112;53.592;10.184;2022-07-18T18:28:24;101643.97;;;26.87;64.16
16016;BME280;8112;53.592;10.184;2022-07-18T18:33:27;101639.31;;;26.73;69.32
16016;BME280;8112;53.592;10.184;2022-07-18T18:38:29;101627.19;;;26.60;74.91
16016;BME280;8112;53.592;10.184;2022-07-18T18:43:32;101630.81;;;26.44;81.24
16016;BME280;8112;53.592;10.184;2022-07-18T18:48:34;101624.09;;;26.32;86.19
16016;BME280;8112;53.592;10.184;2022-07-18T18:53:37;101628.00;;;26.04;92.63
16016;BME280;8112;53.592;10.184;2022-07-18T18:58:40;101629.88;;;25.87;99.19
16016;BME280;8112;53.592;10.184;2022-07-18T19:03:42;101635.81;;;25.66;100.00
16016;BME280;8112;53.592;10.184;2022-07-18T19:08:44;101626.66;;;25.42;100.00
16016;BME280;8112;53.592;10.184;2022-07-18T19:13:47;101630.28;;;25.00;100.00
16016;BME280;8112;53.592;10.184;2022-07-18T19:18:50;101622.16;;;24.83;100.00
16016;BME280;8112;53.592;10.184;2022-07-18T19:23:52;101626.66;;;24.74;100.00
16016;BME280;8112;53.592;10.184;2022-07-18T19:28:56;101630.16;;;24.67;100.00
16016;BME280;8112;53.592;10.184;2022-07-18T19:33:57;101632.91;;;24.40;100.00
16016;BME280;8112;53.592;10.184;2022-07-18T19:39:02;101635.09;;;24.10;100.00
16016;BME280;8112;53.592;10.184;2022-07-18T19:44:08;101644.13;;;23.83;100.00
16016;BME280;8112;53.592;10.184;2022-07-18T19:49:09;101640.69;;;23.72;100.00
16016;BME280;8112;53.592;10.184;2022-07-18T19:54:11;101648.75;;;23.72;100.00
16016;BME280;8112;53.592;10.184;2022-07-18T19:59:14;101659.13;;;23.49;100.00
16016;BME280;8112;53.592;10.184;2022-07-18T20:04:16;101655.38;;;23.14;100.00
16016;BME280;8112;53.592;10.184;2022-07-18T20:09:18;101668.81;;;22.96;100.00
16016;BME280;8112;53.592;10.184;2022-07-18T20:14:21;101667.78;;;22.69;100.00
16016;BME280;8112;53.592;10.184;2022-07-18T20:19:23;101669.13;;;22.45;100.00
16016;BME280;8112;53.592;10.184;2022-07-18T20:24:25;101664.41;;;22.19;100.00
16016;BME280;8112;53.592;10.184;2022-07-18T20:29:28;101667.22;;;22.17;100.00
16016;BME280;8112;53.592;10.184;2022-07-18T20:34:30;101661.47;;;22.02;100.00
16016;BME280;8112;53.592;10.184;2022-07-18T20:39:34;101673.91;;;21.93;100.00
16016;BME280;8112;53.592;10.184;2022-07-18T20:44:38;101663.19;;;21.84;100.00
16016;BME280;8112;53.592;10.184;2022-07-18T20:49:39;101661.78;;;21.80;100.00
16016;BME280;8112;53.592;10.184;2022-07-18T20:54:41;101661.88;;;21.58;100.00
16016;BME280;8112;53.592;10.184;2022-07-18T20:59:45;101667.38;;;21.47;100.00
16016;BME280;8112;53.592;10.184;2022-07-18T21:04:47;101673.00;;;21.34;100.00
16016;BME280;8112;53.592;10.184;2022-07-18T21:09:48;101676.09;;;21.19;100.00
16016;BME280;8112;53.592;10.184;2022-07-18T21:14:51;101666.50;;;21.07;100.00
16016;BME280;8112;53.592;10.184;2022-07-18T21:20:10;101670.66;;;20.90;100.00
16016;BME280;8112;53.592;10.184;2022-07-18T21:25:13;101664.09;;;20.73;100.00
16016;BME280;8112;53.592;10.184;2022-07-18T21:30:17;101657.31;;;20.69;100.00
16016;BME280;8112;53.592;10.184;2022-07-18T21:35:19;101658.03;;;20.71;100.00
16016;BME280;8112;53.592;10.184;2022-07-18T21:40:21;101653.03;;;20.56;100.00
16016;BME280;8112;53.592;10.184;2022-07-18T21:45:24;101643.38;;;20.44;100.00
16016;BME280;8112;53.592;10.184;2022-07-18T21:50:27;101648.72;;;20.44;100.00
16016;BME280;8112;53.592;10.184;2022-07-18T21:55:29;101646.88;;;20.34;100.00
16016;BME280;8112;53.592;10.184;2022-07-18T22:00:32;101656.13;;;20.30;100.00
16016;BME280;8112;53.592;10.184;2022-07-18T22:05:34;101650.59;;;20.22;100.00
16016;BME280;8112;53.592;10.184;2022-07-18T22:10:35;101644.13;;;20.25;100.00
16016;BME280;8112;53.592;10.184;2022-07-18T22:15:38;101636.50;;;20.20;100.00
16016;BME280;8112;53.592;10.184;2022-07-18T22:20:40;101645.78;;;20.16;100.00
16016;BME280;8112;53.592;10.184;2022-07-18T22:25:42;101642.31;;;20.04;100.00
16016;BME280;8112;53.592;10.184;2022-07-18T22:30:46;101631.97;;;19.78;100.00
16016;BME280;8112;53.592;10.184;2022-07-18T22:35:48;101628.13;;;19.71;100.00
16016;BME280;8112;53.592;10.184;2022-07-18T22:40:49;101626.69;;;19.88;100.00
16016;BME280;8112;53.592;10.184;2022-07-18T22:45:52;101627.13;;;19.72;100.00
16016;BME280;8112;53.592;10.184;2022-07-18T22:50:55;101632.66;;;19.59;100.00
16016;BME280;8112;53.592;10.184;2022-07-18T22:55:56;101622.06;;;19.69;100.00
16016;BME280;8112;53.592;10.184;2022-07-18T23:00:59;101626.19;;;19.40;100.00
16016;BME280;8112;53.592;10.184;2022-07-18T23:06:01;101619.34;;;19.15;100.00
16016;BME280;8112;53.592;10.184;2022-07-18T23:11:03;101615.59;;;19.39;100.00
16016;BME280;8112;53.592;10.184;2022-07-18T23:16:07;101612.53;;;19.76;100.00
16016;BME280;8112;53.592;10.184;2022-07-18T23:21:09;101611.88;;;19.30;100.00
16016;BME280;8112;53.592;10.184;2022-07-18T23:26:10;101606.19;;;19.12;100.00
16016;BME280;8112;53.592;10.184;2022-07-18T23:31:13;101606.13;;;18.90;100.00
16016;BME280;8112;53.592;10.184;2022-07-18T23:36:15;101608.28;;;18.97;100.00
16016;BME280;8112;53.592;10.184;2022-07-18T23:41:17;101607.22;;;18.99;100.00
16016;BME280;8112;53.592;10.184;2022-07-18T23:46:20;101624.34;;;18.74;100.00
16016;BME280;8112;53.592;10.184;2022-07-18T23:51:22;101625.78;;;18.44;100.00
16016;BME280;8112;53.592;10.184;2022-07-18T23:56:24;101621.16;;;18.23;100.00
